Latest Weather Observations for Esperance Airport

IDW60801

Issued at 7:32 am WST Wednesday 1 April 2015 (issued every 30 minutes, with the page automatically refreshed every 10 minutes)

About weather observations | Map of weather stations | Latest weather observations for WA | Other Formats
Station Details ID: 009542 Name: ESPERANCE AERO Lat: -33.68 Lon: 121.83 Height: 142.0 m
Data from the previous 72 hours. | See also: Recent months at Esperance Airport
Date/Time
WST
Temp
°C
App
Temp
°C
Dew
Point
Rel
Hum
%
Delta-T
°C
Wind Press
QNH
hPa
Press
MSL
hPa
Rain
since 9 am
mm
Dir
 
Spd
km/h
Gust
km/h
Spd
kts
Gust
kts
01/07:30am 15.6 12.8 11.2 75 2.4 S 17 22 9 12 1025.0 1024.5 19.8
01/07:00am 15.2 12.1 11.6 79 1.9 S 19 24 10 13 1024.6 1024.1 19.8
01/06:30am 14.9 12.3 11.9 82 1.6 S 17 20 9 11 1024.3 1023.8 19.8
01/06:00am 15.2 12.7 12.3 83 1.6 S 17 22 9 12 1023.7 1023.3 19.8
01/05:30am 15.2 12.6 13.2 88 1.1 S 19 28 10 15 1023.4 1023.0 19.8
01/05:00am 15.0 13.6 13.5 91 0.8 S 13 17 7 9 1023.0 1022.6 19.8
01/04:30am 15.3 13.0 14.2 93 0.6 S 19 24 10 13 1022.6 1022.2 19.8
01/04:00am 15.6 13.7 15.1 97 0.3 S 19 24 10 13 1022.1 1021.7 19.8
01/03:30am 15.4 12.5 15.1 98 0.2 S 24 32 13 17 1021.7 1021.3 19.8
01/03:05am 15.7 13.7 15.5 99 0.1 S 20 28 11 15 1021.4 1021.0 19.8
01/03:00am 15.9 14.0 15.7 99 0.1 S 20 28 11 15 1021.2 1020.8 19.8
01/02:47am 15.8 14.4 15.6 99 0.1 S 17 22 9 12 1021.2 1020.8 19.8
01/02:30am 15.8 13.8 15.6 99 0.1 SSW 20 28 11 15 1021.0 1020.6 19.6
01/02:00am 16.1 15.2 15.9 99 0.1 SSW 15 19 8 10 1020.8 1020.4 19.4
01/01:30am 16.1 15.6 15.9 99 0.1 SW 13 17 7 9 1020.8 1020.4 19.4
01/01:00am 16.2 15.7 16.0 99 0.1 SW 13 17 7 9 1020.6 1020.2 19.4
01/12:30am 16.4 15.2 16.2 99 0.1 SSW 17 20 9 11 1020.6 1020.2 19.4
01/12:23am 16.4 15.2 16.2 99 0.1 SSW 17 20 9 11 1020.5 1020.1 19.4
01/12:03am 16.5 15.8 16.3 99 0.1 SSW 15 19 8 10 1020.4 1020.0 19.4
01/12:00am 16.5 15.8 16.3 99 0.1 SSW 15 20 8 11 1020.4 1020.0 19.4
 
Date/Time
WST
Temp
°C
App
Temp
°C
Dew
Point
Rel
Hum
%
Delta-T
°C
Wind Press
QNH
hPa
Press
MSL
hPa
Rain
since 9 am
mm
Dir
 
Spd
km/h
Gust
km/h
Spd
kts
Gust
kts
31/11:38pm 16.5 16.1 16.3 99 0.1 SW 13 17 7 9 1020.2 1019.8 19.0
31/11:30pm 16.4 16.0 16.2 99 0.1 SW 13 17 7 9 1020.2 1019.8 18.8
31/11:20pm 16.5 15.8 16.3 99 0.1 SW 15 20 8 11 1020.2 1019.8 18.8
31/11:14pm 16.7 15.3 16.5 99 0.1 SW 19 24 10 13 1020.2 1019.8 18.8
31/11:03pm 16.6 15.5 16.4 99 0.1 WSW 17 24 9 13 1020.2 1019.8 18.8
31/11:00pm 16.6 15.5 16.4 99 0.1 WSW 17 20 9 11 1020.2 1019.8 18.8
31/10:30pm 16.4 16.8 16.2 99 0.1 WNW 9 13 5 7 1020.0 1019.6 18.6
31/10:00pm 16.4 17.1 16.2 99 0.1 WNW 7 11 4 6 1019.9 1019.5 18.6
31/09:30pm 15.4 15.4 15.2 99 0.1 WNW 9 11 5 6 1019.9 1019.5 18.6
31/09:00pm 15.7 16.1 15.4 98 0.2 W 7 9 4 5 1019.8 1019.3 18.6
31/08:30pm 15.9 16.6 15.6 98 0.2 WSW 6 7 3 4 1019.5 1019.0 18.6
31/08:00pm 16.1 16.2 15.6 97 0.3 WSW 9 11 5 6 1019.1 1018.6 18.6
31/07:30pm 16.1 16.1 15.3 95 0.5 SW 9 9 5 5 1018.6 1018.1 18.6
31/07:00pm 16.6 16.7 15.6 94 0.6 SW 9 9 5 5 1018.4 1017.9 18.6
31/06:30pm 16.9 17.5 15.8 93 0.7 SW 7 9 4 5 1018.0 1017.5 18.6
31/06:00pm 17.3 17.5 15.8 91 0.9 SW 9 11 5 6 1017.4 1016.9 18.6
31/05:30pm 17.8 16.6 16.1 90 1.0 SSW 17 22 9 12 1017.0 1016.5 18.6
31/05:00pm 18.3 16.5 16.1 87 1.3 SSW 20 28 11 15 1016.7 1016.2 18.6
31/04:30pm 19.4 17.8 15.9 80 2.1 SSW 19 26 10 14 1016.3 1015.9 18.6
31/04:00pm 19.5 18.0 16.7 84 1.7 SSW 20 30 11 16 1016.1 1015.7 18.6
31/03:30pm 19.7 18.5 17.1 85 1.6 SSW 19 26 10 14 1015.8 1015.4 18.6
31/03:00pm 20.0 18.3 17.2 84 1.7 SSW 22 30 12 16 1015.7 1015.3 18.6
31/02:30pm 19.3 17.1 16.9 86 1.5 SSW 24 30 13 16 1015.5 1015.1 18.6
31/02:18pm 19.1 16.8 16.7 86 1.5 SSW 24 32 13 17 1015.4 1015.0 18.6
31/02:00pm 18.8 17.1 17.1 90 1.0 SSW 22 28 12 15 1015.3 1014.9 18.6
31/01:44pm 19.0 18.1 17.8 93 0.7 SSW 19 26 10 14 1015.3 1014.9 18.6
31/01:30pm 19.6 19.8 19.4 99 0.1 S 17 22 9 12 1015.2 1014.8 18.6
31/01:01pm 17.7 17.1 17.5 99 0.1 S 17 22 9 12 1015.8 1015.4 18.6
31/01:00pm 17.7 17.1 17.5 99 0.1 S 17 24 9 13 1015.7 1015.3 18.6
31/12:30pm 17.8 17.3 17.8 100 0.0 S 17 24 9 13 1015.6 1015.2 18.6
31/12:00pm 17.6 17.0 17.6 100 0.0 SSE 17 20 9 11 1015.1 1014.7 18.2
31/11:30am 17.3 17.0 17.3 100 0.0 S 15 20 8 11 1016.1 1015.7 18.0
31/11:06am 17.0 15.8 17.0 100 0.0 S 19 22 10 12 1016.3 1015.9 17.4
31/11:00am 17.0 16.2 17.0 100 0.0 S 17 22 9 12 1016.3 1015.9 17.2
31/10:30am 17.0 16.2 17.0 100 0.0 S 17 22 9 12 1016.5 1016.0 14.6
31/10:00am 16.9 16.4 16.9 100 0.0 SSE 15 19 8 10 1016.6 1016.1 9.6
31/09:30am 16.8 14.9 16.8 100 0.0 S 22 30 12 16 1016.3 1015.9 5.6
31/09:00am 17.0 15.8 17.0 100 0.0 S 19 24 10 13 1016.1 1015.7 28.0
31/08:30am 17.2 16.7 17.0 99 0.1 SSE 15 20 8 11 1016.1 1015.7 21.6
31/08:00am 17.1 17.0 16.9 99 0.1 SSE 13 20 7 11 1016.3 1015.9 17.0
31/07:50am 17.2 17.5 17.0 99 0.1 S 11 20 6 11 1016.2 1015.8 14.8
31/07:41am 17.1 17.4 16.9 99 0.1 SSE 11 15 6 8 1016.5 1016.0 13.6
31/07:30am 17.1 17.0 16.9 99 0.1 SSE 13 17 7 9 1016.3 1015.9 12.2
31/07:00am 18.0 20.7 17.8 99 0.1 CALM 0 0 0 0 1016.6 1016.1 9.8
31/06:32am 17.9 19.3 17.7 99 0.1 SW 7 9 4 5 1016.5 1016.0 8.0
31/06:30am 17.9 19.3 17.7 99 0.1 SW 7 9 4 5 1016.5 1016.0 7.8
31/06:00am 17.9 19.3 17.7 99 0.1 SSW 7 11 4 6 1016.2 1015.8 6.0
31/05:30am 18.0 19.4 17.8 99 0.1 WSW 7 9 4 5 1016.6 1016.1 4.0
31/05:00am 17.9 18.8 17.6 98 0.2 WNW 9 13 5 7 1016.6 1016.1 2.6
31/04:58am 18.0 19.0 17.7 98 0.2 WNW 9 13 5 7 1016.7 1016.2 2.4
31/04:30am 17.9 18.7 17.4 97 0.3 WSW 9 15 5 8 1016.5 1016.0 1.8
31/04:00am 17.9 16.7 17.1 95 0.5 WSW 19 22 10 12 1016.5 1016.0 1.4
31/03:30am 18.1 16.3 16.9 93 0.7 W 22 28 12 15 1016.8 1016.3 1.2
31/03:04am 18.4 17.0 16.9 91 0.9 W 20 28 11 15 1016.8 1016.3 1.2
31/03:00am 18.4 17.0 16.9 91 0.9 W 20 24 11 13 1016.9 1016.4 1.0
31/02:52am 18.5 16.3 16.8 90 1.0 W 24 35 13 19 1016.9 1016.4 0.6
31/02:30am 19.9 16.7 16.2 79 2.2 W 28 39 15 21 1016.7 1016.2 0.0
31/02:00am 21.4 19.1 15.7 70 3.4 WNW 22 30 12 16 1016.3 1015.9 0.0
31/01:30am 21.8 19.0 15.4 67 3.8 WNW 24 32 13 17 1016.1 1015.7 0.0
31/01:00am 22.5 18.8 15.1 63 4.4 WNW 28 39 15 21 1015.9 1015.5 0.0
31/12:30am 25.5 19.3 11.3 41 8.1 NW 35 50 19 27 1015.5 1015.1 0.0
31/12:27am 25.7 20.5 11.5 41 8.1 NW 30 50 16 27 1015.3 1014.9 0.0
31/12:00am 24.6 19.5 9.3 38 8.4 N 26 35 14 19 1015.1 1014.7 0.0
 
Date/Time
WST
Temp
°C
App
Temp
°C
Dew
Point
Rel
Hum
%
Delta-T
°C
Wind Press
QNH
hPa
Press
MSL
hPa
Rain
since 9 am
mm
Dir
 
Spd
km/h
Gust
km/h
Spd
kts
Gust
kts
30/11:30pm 25.1 19.7 9.4 37 8.6 N 28 37 15 20 1014.9 1014.5 0.0
30/11:00pm 25.4 21.2 9.7 37 8.7 NNE 22 30 12 16 1015.1 1014.7 0.0
30/10:30pm 25.4 21.2 9.7 37 8.7 NNE 22 32 12 17 1015.3 1014.9 0.0
30/10:00pm 25.2 21.3 9.5 37 8.6 NNE 20 30 11 16 1015.3 1014.9 0.0
30/09:30pm 25.5 21.2 9.3 36 8.9 NNE 22 30 12 16 1015.4 1015.0 0.0
30/09:00pm 25.9 21.8 8.8 34 9.3 NNE 20 28 11 15 1015.4 1015.0 0.0
30/08:30pm 26.4 22.6 7.4 30 10.2 NNE 17 22 9 12 1015.5 1015.1 0.0
30/08:00pm 26.5 22.7 7.5 30 10.2 NNE 17 24 9 13 1015.6 1015.2 0.0
30/07:30pm 27.0 23.3 8.0 30 10.3 NNE 17 22 9 12 1015.6 1015.2 0.0
30/07:00pm 27.4 24.0 7.8 29 10.6 NNE 15 20 8 11 1015.5 1015.1 0.0
30/06:30pm 27.9 24.6 8.2 29 10.8 NNE 15 20 8 11 1015.4 1015.0 0.0
30/06:00pm 28.5 25.6 8.2 28 11.1 NNE 13 17 7 9 1015.1 1014.7 0.0
30/05:30pm 29.7 25.5 8.2 26 11.9 N 20 26 11 14 1015.2 1014.8 0.0
30/05:00pm 30.5 26.6 8.8 26 12.1 N 19 28 10 15 1015.1 1014.7 0.0
30/04:30pm 31.2 27.0 8.2 24 12.8 N 20 28 11 15 1015.1 1014.7 0.0
30/04:00pm 31.3 27.7 8.3 24 12.8 NNE 17 22 9 12 1015.2 1014.8 0.0
30/03:30pm 31.5 27.9 8.5 24 12.9 N 17 24 9 13 1015.3 1014.9 0.0
30/03:00pm 31.9 29.5 8.8 24 13.0 NNW 11 19 6 10 1015.1 1014.7 0.0
30/02:30pm 33.3 28.5 8.7 22 13.9 N 24 37 13 20 1015.6 1015.2 0.0
30/02:00pm 33.4 30.1 8.1 21 14.2 NNW 15 20 8 11 1015.9 1015.5 0.0
30/01:30pm 31.4 28.4 7.8 23 13.0 N 13 22 7 12 1016.5 1016.0 0.0
30/01:00pm 32.7 28.5 8.2 22 13.7 N 20 32 11 17 1016.7 1016.2 0.0
30/12:30pm 32.7 28.7 8.9 23 13.5 N 20 33 11 18 1017.0 1016.5 0.0
30/12:00pm 32.2 27.7 8.4 23 13.3 N 22 33 12 18 1017.6 1017.1 0.0
30/11:30am 30.2 25.5 9.1 27 11.8 N 24 35 13 19 1018.1 1017.6 0.0
30/11:00am 30.0 24.4 10.0 29 11.3 N 30 39 16 21 1018.8 1018.3 0.0
30/10:30am 29.6 23.8 10.7 31 10.8 N 32 44 17 24 1019.1 1018.6 0.0
30/10:00am 28.8 23.4 10.9 33 10.2 N 30 39 16 21 1019.5 1019.0 0.0
30/09:30am 27.2 21.7 10.4 35 9.5 N 30 39 16 21 1020.1 1019.7 0.0
30/09:00am 25.5 19.8 9.7 37 8.7 N 30 39 16 21 1020.1 1019.7 0.0
30/08:30am 23.5 18.3 10.2 43 7.3 N 28 37 15 20 1020.3 1019.9 0.0
30/08:00am 20.8 14.8 10.0 50 5.8 N 32 41 17 22 1020.2 1019.8 0.0
30/07:30am 18.7 13.1 10.3 58 4.5 N 30 37 16 20 1020.3 1019.9 0.0
30/07:00am 16.7 11.6 10.5 67 3.3 N 28 35 15 19 1019.9 1019.5 0.0
30/06:30am 15.5 10.7 10.3 71 2.8 N 26 32 14 17 1019.6 1019.1 0.0
30/06:00am 15.1 10.4 10.5 74 2.4 N 26 30 14 16 1019.5 1019.0 0.0
30/05:30am 15.3 10.7 10.9 75 2.4 N 26 32 14 17 1019.3 1018.8 0.0
30/05:00am 15.2 11.0 11.2 77 2.1 N 24 32 13 17 1019.1 1018.6 0.0
30/04:30am 15.4 11.1 12.0 80 1.9 N 26 33 14 18 1018.9 1018.4 0.0
30/04:00am 15.6 11.4 12.4 81 1.8 N 26 33 14 18 1018.7 1018.2 0.0
30/03:30am 15.4 11.8 12.9 85 1.4 N 24 28 13 15 1018.7 1018.2 0.0
30/03:00am 15.5 12.3 13.2 86 1.3 NNE 22 28 12 15 1018.8 1018.3 0.0
30/02:30am 15.6 12.5 13.3 86 1.3 NNE 22 28 12 15 1018.9 1018.4 0.0
30/02:00am 15.8 13.1 13.5 86 1.3 NNE 20 26 11 14 1019.1 1018.6 0.0
30/01:36am 16.1 13.1 13.8 86 1.3 NNE 22 30 12 16 1019.5 1019.0 0.0
30/01:30am 16.1 13.1 13.8 86 1.3 NNE 22 30 12 16 1019.6 1019.1 0.0
30/01:13am 16.2 13.6 13.9 86 1.3 NNE 20 30 11 16 1019.7 1019.2 0.0
30/01:00am 16.1 13.5 13.8 86 1.3 NNE 20 28 11 15 1019.8 1019.3 0.0
30/12:30am 16.4 14.0 13.7 84 1.5 NE 19 26 10 14 1020.1 1019.7 0.0
30/12:00am 16.7 14.0 13.4 81 1.9 NE 20 33 11 18 1020.3 1019.9 0.0
 
Date/Time
WST
Temp
°C
App
Temp
°C
Dew
Point
Rel
Hum
%
Delta-T
°C
Wind Press
QNH
hPa
Press
MSL
hPa
Rain
since 9 am
mm
Dir
 
Spd
km/h
Gust
km/h
Spd
kts
Gust
kts
29/11:30pm 16.9 14.7 13.2 79 2.1 NE 17 26 9 14 1020.5 1020.1 0.0
29/11:00pm 17.0 14.8 13.3 79 2.1 NE 17 28 9 15 1020.6 1020.2 0.0
29/10:30pm 17.0 14.7 13.1 78 2.2 NE 17 24 9 13 1020.9 1020.5 0.0
29/10:00pm 16.8 14.9 13.1 79 2.1 ENE 15 22 8 12 1021.0 1020.6 0.0
29/09:30pm 17.2 14.9 13.1 77 2.3 ENE 17 26 9 14 1021.2 1020.8 0.0
29/09:00pm 17.5 15.3 13.2 76 2.4 ENE 17 22 9 12 1021.5 1021.1 0.0
29/08:30pm 17.4 15.6 13.3 77 2.3 ENE 15 20 8 11 1021.5 1021.1 0.0
29/08:00pm 17.7 15.5 13.4 76 2.4 ENE 17 24 9 13 1021.5 1021.1 0.0
29/07:30pm 18.1 15.9 13.4 74 2.7 E 17 26 9 14 1021.3 1020.9 0.0
29/07:00pm 18.5 15.9 13.1 71 3.1 E 19 24 10 13 1021.1 1020.7 0.0
29/06:30pm 19.0 16.8 13.4 70 3.2 ESE 17 19 9 10 1021.1 1020.7 0.0
29/06:00pm 20.0 17.4 13.7 67 3.6 ESE 20 24 11 13 1020.8 1020.4 0.0
29/05:30pm 21.0 18.5 14.2 65 4.0 SE 20 26 11 14 1020.7 1020.3 0.0
29/05:00pm 21.9 18.5 13.8 60 4.7 SE 24 30 13 16 1020.4 1020.0 0.0
29/04:30pm 22.6 19.1 13.4 56 5.3 SE 24 30 13 16 1020.5 1020.1 0.0
29/04:00pm 23.1 19.6 13.3 54 5.7 SE 24 32 13 17 1020.5 1020.1 0.0
29/03:30pm 23.5 20.1 13.7 54 5.8 SE 24 32 13 17 1020.6 1020.2 0.0
29/03:00pm 24.8 21.8 13.7 50 6.5 SSE 22 30 12 16 1020.6 1020.2 0.0
29/02:30pm 24.6 21.8 13.2 49 6.7 SSE 20 28 11 15 1020.6 1020.2 0.0
29/02:00pm 25.3 22.6 13.5 48 6.9 SE 20 30 11 16 1020.8 1020.4 0.0
29/01:30pm 25.2 21.2 13.1 47 7.1 SSE 26 39 14 21 1020.9 1020.5 0.0
29/01:00pm 26.8 24.0 10.1 35 9.3 W 15 22 8 12 1021.1 1020.7 0.0
29/12:30pm 24.9 23.4 9.2 37 8.6 NNE 7 15 4 8 1021.4 1021.0 0.0
29/12:00pm 25.7 23.7 10.3 38 8.6 SSW 11 20 6 11 1022.0 1021.6 0.0
29/11:30am 24.2 22.4 9.4 39 8.1 NW 9 19 5 10 1022.5 1022.1 0.0
29/11:00am 24.0 22.4 10.3 42 7.6 W 9 17 5 9 1022.7 1022.3 0.0
29/10:30am 23.4 21.7 9.8 42 7.5 W 9 17 5 9 1023.1 1022.7 0.0
29/10:00am 22.5 21.2 11.3 49 6.3 NNW 9 17 5 9 1023.5 1023.1 0.0
29/09:30am 20.6 20.2 13.1 62 4.3 WSW 7 9 4 5 1023.6 1023.2 0.0
29/09:00am 19.7 19.7 13.6 68 3.5 NNW 6 11 3 6 1023.7 1023.3 0.0
29/08:30am 18.3 18.4 14.4 78 2.3 NNW 7 11 4 6 1024.0 1023.5 0.0
29/08:00am 17.0 17.5 16.5 97 0.3 NW 9 13 5 7 1024.0 1023.5 0.0

Other Formats:

Comma delimited format used in spreadsheet applications
http://www.bom.gov.au/fwo/IDW60801/IDW60801.95638.axf

JavaScript Object Notation format (JSON) in row-major order
http://www.bom.gov.au/fwo/IDW60801/IDW60801.95638.json